Meteorología y climatología de Navarra
Datos de la estación - Meteo Navarra

Estación de Gorramendi GN

Altitud 1071 m.


Datos desde el 15/02/2020 hasta el 16/02/2020 en horario solar
Los datos son PROVISIONALES

Anterior Página 1 de 1 Siguiente Descargar: Formato para Excel 2000 o superior   Formato csv   Formato para OpenOffice Calc
Fecha Temperatura Humedad relativa Radiación global Insolación Precipitación Vel. viento 10 m Vel. viento 10 m Dir. viento 10 m
ºC % W/m² s l/m² m/s km/h º
15/02/2020 0:00 7.1 59 0.0 0 0.0 0.3 1.1 222
15/02/2020 0:10 7.4 57 0.0 0 0.0 1.3 4.8 208
15/02/2020 0:20 7.5 57 0.0 0 0.0 2.4 8.7 208
15/02/2020 0:30 7.6 57 0.0 0 0.0 3.1 11.1 211
15/02/2020 0:40 7.4 57 0.0 0 0.0 3.2 11.4 209
15/02/2020 0:50 7.5 57 0.0 0 0.0 4.0 14.3 213
15/02/2020 1:00 6.9 62 0.0 0 0.0 5.2 18.6 216
15/02/2020 1:10 7.6 56 0.0 0 0.0 5.8 21.0 214
15/02/2020 1:20 7.6 55 0.0 0 0.0 6.1 21.9 207
15/02/2020 1:30 7.5 54 0.0 0 0.0 5.8 20.8 203
15/02/2020 1:40 7.3 55 0.0 0 0.0 6.3 22.7 203
15/02/2020 1:50 7.2 59 0.0 0 0.0 6.1 21.8 200
15/02/2020 2:00 7.5 58 0.0 0 0.0 7.3 26.2 196
15/02/2020 2:10 8.1 57 0.0 0 0.0 8.4 30.2 192
15/02/2020 2:20 8.3 57 0.0 0 0.0 9.3 33.6 194
15/02/2020 2:30 8.3 59 0.0 0 0.0 9.0 32.3 196
15/02/2020 2:40 8.0 62 0.0 0 0.0 9.3 33.3 198
15/02/2020 2:50 7.6 66 0.0 0 0.0 8.7 31.2 203
15/02/2020 3:00 7.4 68 0.0 0 0.0 8.4 30.3 203
15/02/2020 3:10 7.2 70 0.0 0 0.0 7.0 25.3 204
15/02/2020 3:20 7.3 69 0.0 0 0.0 6.9 24.9 204
15/02/2020 3:30 7.2 69 0.0 0 0.0 7.5 27.0 201
15/02/2020 3:40 7.5 67 0.0 0 0.0 8.1 29.2 198
15/02/2020 3:50 7.4 67 0.0 0 0.0 8.3 29.7 198
15/02/2020 4:00 7.4 68 0.0 0 0.0 9.0 32.4 197
15/02/2020 4:10 7.4 69 0.0 0 0.0 8.7 31.4 199
15/02/2020 4:20 7.4 70 0.0 0 0.0 9.6 34.5 199
15/02/2020 4:30 7.5 71 0.0 0 0.0 9.5 34.1 197
15/02/2020 4:40 7.6 71 0.0 0 0.0 9.8 35.4 198
15/02/2020 4:50 7.6 72 0.0 0 0.0 10.2 36.7 198
15/02/2020 5:00 7.6 72 0.0 0 0.0 10.2 36.7 198
15/02/2020 5:10 7.5 73 0.0 0 0.0 10.8 38.9 198
15/02/2020 5:20 7.6 73 0.0 0 0.0 10.9 39.2 199
15/02/2020 5:30 7.6 74 0.0 0 0.0 11.2 40.4 199
15/02/2020 5:40 7.5 74 0.0 0 0.0 11.6 41.7 201
15/02/2020 5:50 7.6 73 0.0 0 0.0 11.3 40.8 202
15/02/2020 6:00 7.5 73 0.0 0 0.0 10.2 36.8 202
15/02/2020 6:10 7.4 72 0.0 0 0.0 10.4 37.5 202
15/02/2020 6:20 7.5 72 0.0 0 0.0 11.1 40.0 204
15/02/2020 6:30 7.5 72 0.0 0 0.0 10.9 39.3 202
15/02/2020 6:40 7.5 71 0.0 0 0.0 10.8 38.7 203
15/02/2020 6:50 7.5 71 0.0 0 0.0 9.9 35.5 199
15/02/2020 7:00 7.4 71 0.0 0 0.0 9.7 34.9 198
15/02/2020 7:10 7.3 71 0.0 0 0.0 10.7 38.6 197
15/02/2020 7:20 7.2 72 22.9 10 0.0 11.0 39.7 197
15/02/2020 7:30 7.3 72 42.7 600 0.0 11.0 39.5 202
15/02/2020 7:40 7.3 73 67.1 600 0.0 11.2 40.3 200
15/02/2020 7:50 7.4 72 94.7 600 0.0 11.6 41.6 202
15/02/2020 8:00 7.5 72 123.5 600 0.0 11.4 40.9 202
15/02/2020 8:10 7.7 72 152.8 600 0.0 11.8 42.3 201
15/02/2020 8:20 7.8 72 183.4 600 0.0 10.9 39.1 200
15/02/2020 8:30 8.1 70 214.2 600 0.0 11.2 40.3 197
15/02/2020 8:40 8.3 70 244.0 600 0.0 10.4 37.5 198
15/02/2020 8:50 8.4 69 274.0 600 0.0 10.5 37.7 203
15/02/2020 9:00 8.5 70 302.7 600 0.0 9.3 33.5 202
15/02/2020 9:10 8.6 70 330.0 600 0.0 9.6 34.6 201
15/02/2020 9:20 8.6 70 356.4 600 0.0 9.9 35.6 197
15/02/2020 9:30 8.7 70 383.0 600 0.0 11.5 41.5 197
15/02/2020 9:40 8.8 71 408.8 600 0.0 12.9 46.3 199
15/02/2020 9:50 9.0 70 433.6 600 0.0 13.0 46.8 199
15/02/2020 10:00 9.2 69 458.1 600 0.0 13.6 48.9 198
15/02/2020 10:10 9.4 69 480.4 600 0.0 13.3 48.0 202
15/02/2020 10:20 9.3 69 501.6 600 0.0 12.8 45.9 203
15/02/2020 10:30 9.6 68 520.4 600 0.0 12.4 44.5 202
15/02/2020 10:40 9.6 69 538.5 600 0.0 11.3 40.8 203
15/02/2020 10:50 9.7 69 553.8 600 0.0 10.7 38.6 200
15/02/2020 11:00 9.7 69 567.2 600 0.0 9.0 32.3 204
15/02/2020 11:10 9.7 69 579.6 600 0.0 8.0 28.8 207
15/02/2020 11:20 10.2 68 590.5 600 0.0 8.0 28.8 207
15/02/2020 11:30 10.3 67 602.1 600 0.0 8.6 31.0 202
15/02/2020 11:40 10.6 67 610.0 600 0.0 8.3 29.9 203
15/02/2020 11:50 10.9 66 615.6 600 0.0 9.1 32.7 204
15/02/2020 12:00 11.0 65 622.1 600 0.0 9.6 34.7 204
15/02/2020 12:10 10.7 67 628.2 600 0.0 9.7 35.1 209
15/02/2020 12:20 11.0 66 632.7 600 0.0 9.4 33.9 210
15/02/2020 12:30 11.1 65 629.1 600 0.0 9.2 33.0 210
15/02/2020 12:40 11.2 63 620.2 600 0.0 9.9 35.7 201
15/02/2020 12:50 11.3 62 547.3 600 0.0 9.6 34.7 206
15/02/2020 13:00 11.5 61 579.6 600 0.0 8.7 31.5 211
15/02/2020 13:10 11.7 57 477.2 600 0.0 10.4 37.3 210
15/02/2020 13:20 12.0 56 513.5 600 0.0 10.2 36.8 209
15/02/2020 13:30 12.1 54 494.6 600 0.0 10.9 39.4 209
15/02/2020 13:40 11.9 55 348.0 600 0.0 10.2 36.8 220
15/02/2020 13:50 11.9 54 432.7 600 0.0 10.8 38.7 219
15/02/2020 14:00 11.8 54 364.9 600 0.0 10.7 38.3 215
15/02/2020 14:10 11.7 55 328.6 600 0.0 10.9 39.3 211
15/02/2020 14:20 11.6 56 295.6 600 0.0 10.3 37.2 216
15/02/2020 14:30 11.6 56 266.9 600 0.0 11.3 40.6 211
15/02/2020 14:40 11.6 55 260.1 600 0.0 11.9 42.7 208
15/02/2020 14:50 11.6 56 247.0 600 0.0 12.5 45.0 206
15/02/2020 15:00 11.4 58 213.0 212 0.0 11.9 42.9 209
15/02/2020 15:10 11.4 57 187.4 0 0.0 12.2 44.0 207
15/02/2020 15:20 11.3 58 168.6 0 0.0 13.1 47.2 208
15/02/2020 15:30 11.3 57 141.1 0 0.0 13.0 46.6 208
15/02/2020 15:40 11.3 57 116.0 0 0.0 11.9 42.9 205
15/02/2020 15:50 11.0 59 103.1 0 0.0 11.4 41.2 202
15/02/2020 16:00 10.8 61 97.1 0 0.0 11.3 40.5 199
15/02/2020 16:10 10.7 62 88.9 0 0.0 11.0 39.7 202
15/02/2020 16:20 10.6 62 82.7 0 0.0 11.3 40.6 204
15/02/2020 16:30 10.5 63 79.1 0 0.0 12.1 43.4 204
15/02/2020 16:40 10.3 63 71.7 0 0.0 12.5 44.9 201
15/02/2020 16:50 10.3 62 55.0 0 0.0 13.8 49.8 204
15/02/2020 17:00 10.7 56 44.7 0 0.0 14.4 51.7 207
15/02/2020 17:10 10.7 55 42.1 422 0.0 13.3 47.7 206
15/02/2020 17:20 10.6 55 36.5 600 0.0 13.3 48.0 206
15/02/2020 17:30 10.6 55 20.2 12 0.0 13.3 47.8 206
15/02/2020 17:40 10.4 56 0.0 0 0.0 13.4 48.3 205
15/02/2020 17:50 10.5 56 0.0 0 0.0 13.3 48.0 205
15/02/2020 18:00 10.5 56 0.0 0 0.0 13.0 46.7 204
15/02/2020 18:10 10.5 56 0.0 0 0.0 13.4 48.1 205
15/02/2020 18:20 10.6 57 0.0 0 0.0 13.0 46.8 206
15/02/2020 18:30 10.5 58 0.0 0 0.0 12.9 46.6 208
15/02/2020 18:40 10.5 58 0.0 0 0.0 12.5 45.1 211
15/02/2020 18:50 10.2 60 0.0 0 0.0 11.3 40.6 211
15/02/2020 19:00 10.3 60 0.0 0 0.0 11.4 41.1 209
15/02/2020 19:10 10.2 61 0.0 0 0.0 11.8 42.4 206
15/02/2020 19:20 10.2 61 0.0 0 0.0 12.7 45.7 204
15/02/2020 19:30 10.1 61 0.0 0 0.0 13.8 49.8 205
15/02/2020 19:40 10.2 61 0.0 0 0.0 12.7 45.9 207
15/02/2020 19:50 10.3 60 0.0 0 0.0 13.8 49.5 207
15/02/2020 20:00 10.3 61 0.0 0 0.0 13.9 50.0 207
15/02/2020 20:10 10.1 62 0.0 0 0.0 13.9 49.9 207
15/02/2020 20:20 10.1 63 0.0 0 0.0 14.1 50.7 208
15/02/2020 20:30 10.0 64 0.0 0 0.0 14.1 50.8 209
15/02/2020 20:40 10.1 63 0.0 0 0.0 13.8 49.5 207
15/02/2020 20:50 10.0 64 0.0 0 0.0 13.3 48.0 210
15/02/2020 21:00 9.8 65 0.0 0 0.0 13.1 47.2 208
15/02/2020 21:10 9.9 64 0.0 0 0.0 12.9 46.5 207
15/02/2020 21:20 9.8 65 0.0 0 0.0 13.3 47.9 203
15/02/2020 21:30 9.9 64 0.0 0 0.0 14.0 50.3 204
15/02/2020 21:40 9.9 63 0.0 0 0.0 12.8 46.2 198
15/02/2020 21:50 9.8 63 0.0 0 0.0 12.7 45.8 204
15/02/2020 22:00 9.8 63 0.0 0 0.0 12.0 43.2 208
15/02/2020 22:10 10.0 62 0.0 0 0.0 13.0 46.6 211
15/02/2020 22:20 10.0 60 0.0 0 0.0 14.6 52.4 205
15/02/2020 22:30 10.0 59 0.0 0 0.0 15.1 54.4 205
15/02/2020 22:40 10.2 57 0.0 0 0.0 14.7 52.7 204
15/02/2020 22:50 10.3 56 0.0 0 0.0 15.8 56.7 203
15/02/2020 23:00 10.5 54 0.0 0 0.0 15.8 56.7 204
15/02/2020 23:10 10.4 54 0.0 0 0.0 14.2 51.2 199
15/02/2020 23:20 10.3 54 0.0 0 0.0 12.9 46.6 199
15/02/2020 23:30 10.3 55 0.0 0 0.0 12.1 43.5 200
15/02/2020 23:40 10.0 58 0.0 0 0.0 12.2 44.0 193
15/02/2020 23:50 9.8 58 0.0 0 0.0 13.7 49.1 195
Anterior Página 1 de 1 Siguiente
Los datos de precipitación registrados en estaciones que están en cumbres son inferiores a lo real, como consecuencia del efecto del viento y de la nieve.


NOTA: Tipo de datos según el color:
   - Valores diarios o 10 minutos correctos
   - Valores diarios calculados a partir de un número de datos 10 minutos menor que 144 y mayor que 120, o de un número de datos semihorarios menor que 48 y mayor que 40 (caso de las estaciones de INTIA y del Ministerio)
   - Valores diez minutos estimados


Contacto        Enlaces        Aviso legal